メインページ
METAR-TAF:

METAR-TAF

空港 :

ベオグラード, セルビア

ベオグラード・ニコラ・テスラ空港

緯度: 44-49N, 経度: 020-17E, 海抜: 96m

現時点の気象観測

当レポートは39分前の23:00(UTC)に作成
西/南西の風 6kt
気温 4°C
湿度 87%
気圧 1023 hPa
視程10km以上
1,500メートル以下は雲なし、積乱雲なし

METAR: LYBE 232300Z 24006KT CAVOK 04/02 Q1023 NOSIG

時間: 01:39 (23:39 UTC)

予報

当レポートは6時間39分前の17:00(UTC)に作成
予報は23日の 18時(UTC)から 24日の 18時(UTC)まで有効
西の風 8kt
視程10km以上
1,500メートル以下は雲なし、積乱雲なし

TAF: LYBE 231700Z 2318/2418 26008KT CAVOK TX15/2412Z TN04/2404Z

4,000以上の空港の気象観測と天気予報(METAR報とTAF報)

利用可能な観測所は地図上に黄色い丸と赤い丸で示す。

丸の上にカーソルを重ねると観測所名を参照できる。

次にクリックすると気象観測と天気予報を参照できる。

マップの切り替え:黒色「×」印の緑ボタンをクリックして拡大、「-」印の緑ボタンをクリックして縮小、緑色の三角印をクリックして隣りの地図に切り替え


METAR-TAF: